Time;durP1;ratioP1;P1;durP2;ratioP2;P2;SDS_P1;SDS_P2;PMS_P1;PMS_P2;Temp;Humidity;BMP_temperature;BMP_pressure;BME280_temperature;BME280_humidity;BME280_pressure;Samples;Min_cycle;Max_cycle;Signal;HPM_P1;HPM_P2
2024/03/20 00:02:07;;;;;;;3.63;1.73;;;14.20;59.30;16.00;101734.00;;;;4982190;28;20194;-75
2024/03/20 00:04:34;;;;;;;4.72;2.30;;;14.20;59.30;16.00;101731.00;;;;4995740;28;20228;-75
2024/03/20 00:07:01;;;;;;;5.22;2.03;;;14.20;59.30;16.00;101724.00;;;;4997440;28;20285;-75
2024/03/20 00:09:28;;;;;;;4.20;1.75;;;14.20;59.30;16.00;101720.00;;;;4995091;28;20292;-75
2024/03/20 00:11:56;;;;;;;2.60;1.60;;;14.20;59.30;16.00;101720.00;;;;4994695;28;20582;-74
2024/03/20 00:14:24;;;;;;;4.57;1.40;;;14.20;59.30;16.00;101729.00;;;;4994699;28;20737;-74
2024/03/20 00:16:51;;;;;;;2.50;1.55;;;14.20;59.40;16.00;101729.00;;;;4994229;28;20718;-75
2024/03/20 00:19:18;;;;;;;3.60;1.50;;;14.20;59.40;16.00;101728.00;;;;4994112;28;20204;-74
2024/03/20 00:21:46;;;;;;;4.35;1.58;;;14.20;59.50;16.00;101734.00;;;;4999291;28;20312;-74
2024/03/20 00:24:13;;;;;;;3.72;1.67;;;14.10;59.50;15.90;101732.00;;;;5013998;28;20263;-74
2024/03/20 00:26:40;;;;;;;6.38;2.17;;;14.10;59.50;15.90;101742.00;;;;5013773;28;20197;-74
2024/03/20 00:29:08;;;;;;;2.97;1.80;;;14.10;59.50;15.90;101736.00;;;;4995138;28;20296;-74
2024/03/20 00:31:36;;;;;;;5.72;1.75;;;14.10;59.50;15.90;101735.00;;;;4993039;28;20652;-74
2024/03/20 00:34:03;;;;;;;3.35;1.75;;;14.10;59.50;15.90;101737.00;;;;4994364;28;20694;-74
2024/03/20 00:36:31;;;;;;;4.68;2.45;;;14.10;59.50;15.80;101734.00;;;;4993735;28;20663;-74
2024/03/20 00:38:58;;;;;;;4.13;1.90;;;14.10;59.60;15.80;101732.00;;;;4996369;28;20208;-74
2024/03/20 00:41:25;;;;;;;4.10;1.98;;;14.10;59.60;15.80;101736.00;;;;5003568;28;20198;-74
2024/03/20 00:43:53;;;;;;;3.38;1.88;;;14.00;59.60;15.80;101733.00;;;;4993718;28;20709;-74
2024/03/20 00:46:20;;;;;;;3.70;1.85;;;14.00;59.60;15.80;101732.00;;;;4993342;28;20200;-74
2024/03/20 00:48:48;;;;;;;3.85;1.65;;;14.00;59.70;15.80;101729.00;;;;4993992;28;20202;-74
2024/03/20 00:51:15;;;;;;;3.85;2.35;;;14.00;59.60;15.80;101726.00;;;;4993829;28;20248;-75
2024/03/20 00:53:43;;;;;;;4.78;2.03;;;14.00;59.60;15.80;101729.00;;;;4988475;28;20199;-74
2024/03/20 00:56:10;;;;;;;4.53;1.90;;;14.00;59.70;15.80;101724.00;;;;4984155;28;20209;-74
2024/03/20 00:58:37;;;;;;;4.30;2.17;;;14.00;59.70;15.80;101720.00;;;;4992821;28;20217;-74
2024/03/20 01:01:04;;;;;;;3.28;2.08;;;14.00;59.70;15.80;101724.00;;;;4993087;28;20201;-74
2024/03/20 01:03:32;;;;;;;3.30;1.60;;;14.00;59.80;15.80;101716.00;;;;4994175;28;20194;-74
2024/03/20 01:06:00;;;;;;;2.78;1.70;;;13.90;59.90;15.70;101717.00;;;;4994053;28;20226;-74
2024/03/20 01:08:27;;;;;;;3.03;2.10;;;14.00;59.90;15.70;101726.00;;;;4993893;28;20190;-74
2024/03/20 01:10:54;;;;;;;4.18;1.98;;;13.90;59.80;15.70;101735.00;;;;4993108;28;20611;-74
2024/03/20 01:13:22;;;;;;;3.03;2.08;;;13.90;59.90;15.70;101728.00;;;;4993667;28;20197;-74
2024/03/20 01:15:49;;;;;;;4.95;1.80;;;13.90;59.90;15.70;101731.00;;;;4993321;28;20206;-74
2024/03/20 01:18:17;;;;;;;5.38;2.13;;;13.90;60.00;15.70;101726.00;;;;4991378;28;20309;-74
2024/03/20 01:20:45;;;;;;;2.88;1.98;;;13.90;60.10;15.70;101721.00;;;;4992885;28;20265;-74
2024/03/20 01:23:16;;;;;;;3.25;1.63;;;13.90;60.10;15.60;101719.00;;;;4992588;28;20229;-74
2024/03/20 01:25:44;;;;;;;4.05;2.30;;;13.90;60.10;15.70;101726.00;;;;4993554;28;20260;-74
2024/03/20 01:28:12;;;;;;;3.45;1.67;;;13.90;60.10;15.60;101720.00;;;;4993217;28;20194;-74
2024/03/20 01:30:39;;;;;;;10.55;2.53;;;13.80;60.00;15.60;101720.00;;;;4982675;28;20695;-74
2024/03/20 01:33:06;;;;;;;4.28;2.40;;;13.80;60.00;15.60;101722.00;;;;4993062;28;20190;-74
2024/03/20 01:35:33;;;;;;;4.50;2.60;;;13.80;60.00;15.60;101721.00;;;;4992804;28;20200;-74
2024/03/20 01:38:00;;;;;;;4.07;2.90;;;13.80;60.10;15.60;101714.00;;;;4993079;28;20190;-74
2024/03/20 01:40:28;;;;;;;3.33;2.67;;;13.80;60.10;15.60;101711.00;;;;4992002;28;20293;-74
2024/03/20 01:43:05;;;;;;;5.85;2.55;;;13.80;60.20;15.50;101708.00;;;;4992407;28;20310;-74
2024/03/20 01:45:32;;;;;;;3.83;2.90;;;13.70;60.20;15.50;101706.00;;;;4989519;28;20225;-74
2024/03/20 01:47:59;;;;;;;3.83;3.15;;;13.70;60.10;15.50;101707.00;;;;4992883;28;20290;-74
2024/03/20 01:50:26;;;;;;;5.35;3.25;;;13.70;60.10;15.50;101700.00;;;;4992216;28;20204;-74
2024/03/20 01:52:55;;;;;;;6.05;3.00;;;13.70;60.20;15.50;101697.00;;;;4991736;28;20216;-74
2024/03/20 01:55:24;;;;;;;4.68;3.05;;;13.70;60.20;15.50;101700.00;;;;4992029;28;20198;-74
2024/03/20 01:57:54;;;;;;;5.15;3.08;;;13.70;60.20;15.40;101696.00;;;;4992432;28;20280;-74
2024/03/20 02:00:23;;;;;;;4.65;2.92;;;13.70;60.30;15.50;101694.00;;;;4992056;28;20667;-74
2024/03/20 02:02:51;;;;;;;4.05;2.90;;;13.70;60.30;15.40;101694.00;;;;4992076;28;20198;-74
2024/03/20 02:05:19;;;;;;;5.20;3.65;;;13.60;60.20;15.40;101698.00;;;;4994487;28;20653;-74
2024/03/20 02:07:46;;;;;;;5.10;3.40;;;13.60;60.30;15.40;101693.00;;;;4992433;28;20190;-74
2024/03/20 02:10:13;;;;;;;4.47;3.30;;;13.60;60.30;15.40;101698.00;;;;4991761;28;20204;-74
2024/03/20 02:12:41;;;;;;;6.05;4.07;;;13.60;60.40;15.30;101698.00;;;;4991656;28;20675;-75
2024/03/20 02:15:12;;;;;;;6.68;3.13;;;13.60;60.40;15.30;101692.00;;;;4992280;28;20200;-74
2024/03/20 02:17:40;;;;;;;4.88;3.15;;;13.50;60.40;15.30;101698.00;;;;4991535;28;20774;-74
2024/03/20 02:20:09;;;;;;;5.25;3.80;;;13.60;60.50;15.30;101706.00;;;;4981079;28;20202;-74
2024/03/20 02:22:41;;;;;;;4.70;3.70;;;13.50;60.50;15.20;101707.00;;;;4982193;28;20217;-74
2024/03/20 02:25:09;;;;;;;6.53;3.53;;;13.50;60.50;15.30;101697.00;;;;4991137;28;20225;-75
2024/03/20 02:27:35;;;;;;;8.25;3.97;;;13.50;60.50;15.20;101703.00;;;;4991443;28;20198;-74
2024/03/20 02:30:05;;;;;;;5.10;3.80;;;13.50;60.50;15.20;101697.00;;;;4990495;28;20248;-75
2024/03/20 02:32:32;;;;;;;7.68;4.20;;;13.40;60.50;15.20;101708.00;;;;4987352;28;20201;-74
2024/03/20 02:34:59;;;;;;;5.15;3.45;;;13.40;60.50;15.20;101711.00;;;;4990952;28;20277;-75
2024/03/20 02:37:26;;;;;;;7.03;3.40;;;13.40;60.60;15.10;101698.00;;;;4994587;28;20696;-75
2024/03/20 02:39:54;;;;;;;5.95;3.55;;;13.40;60.60;15.10;101711.00;;;;4993309;28;20665;-74
2024/03/20 02:42:22;;;;;;;4.18;3.13;;;13.40;60.60;15.10;101706.00;;;;4991453;28;20647;-74
2024/03/20 02:44:50;;;;;;;5.25;3.28;;;13.40;60.60;15.10;101701.00;;;;4991789;28;20220;-74
2024/03/20 02:47:17;;;;;;;4.28;3.70;;;13.30;60.60;15.00;101699.00;;;;4989591;28;20201;-74
2024/03/20 02:49:46;;;;;;;4.32;3.08;;;13.30;60.60;15.00;101704.00;;;;4991644;28;20593;-74
2024/03/20 02:52:14;;;;;;;5.40;4.05;;;13.30;60.80;15.00;101688.00;;;;4991907;28;20206;-75
2024/03/20 02:54:41;;;;;;;4.78;3.38;;;13.30;60.70;15.00;101697.00;;;;4996070;28;20573;-75
2024/03/20 02:57:10;;;;;;;5.00;3.60;;;13.20;60.70;15.00;101686.00;;;;4993798;28;20272;-74
2024/03/20 02:59:37;;;;;;;8.02;3.17;;;13.20;60.80;15.00;101690.00;;;;4991610;28;20675;-74
2024/03/20 03:02:04;;;;;;;7.07;4.32;;;13.20;60.90;15.00;101686.00;;;;4990495;28;20651;-74
2024/03/20 03:04:31;;;;;;;5.25;3.83;;;13.20;60.90;14.90;101698.00;;;;4991541;28;20190;-74
2024/03/20 03:06:58;;;;;;;5.07;3.60;;;13.20;60.90;14.90;101700.00;;;;4991624;28;20204;-75
2024/03/20 03:09:26;;;;;;;5.88;3.75;;;13.20;60.90;14.90;101688.00;;;;4990565;28;20198;-74
2024/03/20 03:11:53;;;;;;;6.85;3.97;;;13.10;60.90;14.90;101686.00;;;;4992864;28;20215;-74
2024/03/20 03:14:22;;;;;;;6.28;4.18;;;13.10;60.90;14.90;101691.00;;;;4991671;28;20282;-75
2024/03/20 03:16:49;;;;;;;5.38;3.90;;;13.10;61.00;14.90;101692.00;;;;4990759;28;20220;-75
2024/03/20 03:19:16;;;;;;;5.53;4.00;;;13.10;61.00;14.80;101699.00;;;;4991473;28;20198;-75
2024/03/20 03:21:43;;;;;;;6.60;4.25;;;13.10;61.00;14.80;101688.00;;;;4992558;28;20206;-75
2024/03/20 03:24:10;;;;;;;6.55;4.60;;;13.00;61.10;14.80;101686.00;;;;4995014;28;20198;-75
2024/03/20 03:26:37;;;;;;;6.22;4.32;;;13.00;61.00;14.80;101683.00;;;;4993977;28;20221;-75
2024/03/20 03:29:04;;;;;;;7.10;4.50;;;13.00;61.10;14.80;101683.00;;;;4994747;28;20197;-75
2024/03/20 03:31:36;;;;;;;5.13;3.90;;;13.00;61.10;14.80;101682.00;;;;4993984;28;20637;-75
2024/03/20 03:34:03;;;;;;;8.93;5.18;;;13.00;61.20;14.80;101680.00;;;;4995109;28;20212;-74
2024/03/20 03:36:32;;;;;;;9.20;5.50;;;13.00;61.20;14.70;101674.00;;;;4994880;28;20560;-75
2024/03/20 03:38:59;;;;;;;5.85;4.15;;;12.90;61.10;14.70;101674.00;;;;4993392;28;20655;-75
2024/03/20 03:41:26;;;;;;;8.07;5.30;;;13.00;61.20;14.70;101676.00;;;;4994184;28;20564;-75
2024/03/20 03:43:53;;;;;;;8.43;5.20;;;12.90;61.20;14.70;101679.00;;;;4994691;28;20711;-75
2024/03/20 03:46:20;;;;;;;7.20;5.28;;;12.90;61.20;14.70;101675.00;;;;4998538;28;20225;-75
2024/03/20 03:48:49;;;;;;;8.57;5.25;;;12.90;61.30;14.70;101678.00;;;;4984803;28;20284;-75
2024/03/20 03:51:16;;;;;;;10.85;6.18;;;12.90;61.30;14.70;101681.00;;;;4994675;28;20558;-75
2024/03/20 03:53:43;;;;;;;12.93;5.60;;;12.90;61.30;14.70;101682.00;;;;4994874;28;20672;-74
2024/03/20 03:56:10;;;;;;;9.85;5.20;;;12.90;61.30;14.60;101682.00;;;;4994651;28;20274;-75
2024/03/20 03:58:38;;;;;;;7.80;4.95;;;12.80;61.20;14.60;101689.00;;;;4990522;28;20209;-74
2024/03/20 04:01:05;;;;;;;7.28;4.80;;;12.80;61.30;14.60;101689.00;;;;4992901;28;20198;-74
2024/03/20 04:03:32;;;;;;;8.85;5.93;;;12.80;61.30;14.60;101689.00;;;;4994850;28;20204;-75
2024/03/20 04:06:01;;;;;;;5.78;5.10;;;12.80;61.40;14.60;101692.00;;;;4994181;28;20274;-74
2024/03/20 04:08:28;;;;;;;6.57;5.15;;;12.80;61.50;14.60;101678.00;;;;4993772;28;21191;-75
2024/03/20 04:10:55;;;;;;;10.23;5.68;;;12.80;61.40;14.60;101690.00;;;;4994669;28;20206;-75
2024/03/20 04:13:22;;;;;;;8.93;5.60;;;12.80;61.40;14.50;101691.00;;;;4994531;28;20667;-75
2024/03/20 04:15:52;;;;;;;7.68;5.82;;;12.80;61.40;14.50;101692.00;;;;4993900;28;20216;-75
2024/03/20 04:18:19;;;;;;;9.93;5.90;;;12.70;61.40;14.50;101684.00;;;;4993475;28;20242;-75
2024/03/20 04:20:47;;;;;;;8.70;5.57;;;12.70;61.40;14.50;101687.00;;;;4993937;28;20946;-75
2024/03/20 04:23:15;;;;;;;7.95;5.85;;;12.70;61.40;14.50;101689.00;;;;4993933;28;20185;-75
2024/03/20 04:25:42;;;;;;;11.05;5.60;;;12.70;61.50;14.40;101691.00;;;;4993087;28;20602;-75
2024/03/20 04:28:09;;;;;;;8.57;6.00;;;12.70;61.50;14.40;101691.00;;;;4986937;28;20292;-76
2024/03/20 04:30:36;;;;;;;8.65;6.00;;;12.70;61.50;14.40;101687.00;;;;4993864;28;20198;-75
2024/03/20 04:33:06;;;;;;;7.63;5.70;;;12.70;61.50;14.40;101692.00;;;;4993647;28;20201;-75
2024/03/20 04:35:34;;;;;;;17.65;5.43;;;12.60;61.50;14.40;101687.00;;;;4993800;28;20202;-75
2024/03/20 04:38:01;;;;;;;9.45;5.22;;;12.60;61.60;14.40;101691.00;;;;4992477;28;20630;-75
2024/03/20 04:40:29;;;;;;;9.93;5.65;;;12.60;61.60;14.40;101687.00;;;;4993364;28;20281;-75
2024/03/20 04:42:56;;;;;;;7.97;5.70;;;12.60;61.60;14.40;101692.00;;;;4993316;28;20225;-75
2024/03/20 04:45:23;;;;;;;9.35;6.55;;;12.60;61.60;14.40;101691.00;;;;4993610;28;20721;-76
2024/03/20 04:47:50;;;;;;;9.95;6.45;;;12.60;61.60;14.30;101693.00;;;;4993126;28;20194;-75
2024/03/20 04:50:17;;;;;;;10.80;6.97;;;12.60;61.60;14.30;101690.00;;;;4994557;28;20189;-76
2024/03/20 04:52:44;;;;;;;7.85;6.15;;;12.50;61.60;14.30;101689.00;;;;4993373;28;20782;-75
2024/03/20 04:55:12;;;;;;;8.90;6.10;;;12.50;61.70;14.30;101691.00;;;;5000211;28;20201;-75
2024/03/20 04:57:40;;;;;;;8.13;6.60;;;12.50;61.80;14.30;101698.00;;;;4990652;28;20675;-75
2024/03/20 05:00:13;;;;;;;10.35;7.05;;;12.50;61.70;14.30;101698.00;;;;4991682;28;20206;-75
2024/03/20 05:02:40;;;;;;;8.77;6.22;;;12.50;61.70;14.30;101700.00;;;;4974533;28;20214;-76
2024/03/20 05:05:09;;;;;;;8.35;6.80;;;12.50;61.90;14.30;101695.00;;;;4987540;28;20198;-75
2024/03/20 05:07:36;;;;;;;12.40;7.28;;;12.50;62.00;14.30;101695.00;;;;4991675;28;20687;-76
2024/03/20 05:10:04;;;;;;;9.90;6.63;;;12.50;61.90;14.30;101700.00;;;;4993248;28;20304;-75
2024/03/20 05:12:31;;;;;;;10.57;7.72;;;12.50;62.00;14.30;101698.00;;;;5003394;28;20286;-76
2024/03/20 05:15:00;;;;;;;13.50;7.82;;;12.50;62.00;14.30;101705.00;;;;4993415;28;20776;-75
2024/03/20 05:17:27;;;;;;;10.77;7.53;;;12.50;62.10;14.30;101703.00;;;;4992552;28;20218;-75
2024/03/20 05:19:54;;;;;;;13.75;8.18;;;12.50;62.10;14.30;101699.00;;;;4993388;28;20190;-75
2024/03/20 05:22:21;;;;;;;13.05;7.78;;;12.50;62.10;14.30;101697.00;;;;4992923;28;20198;-75
2024/03/20 05:24:50;;;;;;;8.82;7.22;;;12.50;62.20;14.30;101701.00;;;;4993442;28;20280;-75
2024/03/20 05:27:17;;;;;;;13.30;8.77;;;12.50;62.20;14.30;101695.00;;;;4992028;28;20225;-75
2024/03/20 05:29:44;;;;;;;14.95;7.80;;;12.50;62.10;14.30;101701.00;;;;4992051;28;20193;-76
2024/03/20 05:32:12;;;;;;;10.93;8.30;;;12.50;62.10;14.30;101698.00;;;;4993086;28;20203;-76
2024/03/20 05:34:38;;;;;;;11.27;8.20;;;12.50;62.10;14.30;101700.00;;;;4992736;28;20206;-76
2024/03/20 05:37:06;;;;;;;12.73;8.65;;;12.50;62.10;14.30;101697.00;;;;4992803;28;20236;-76
2024/03/20 05:39:33;;;;;;;11.07;9.10;;;12.50;62.10;14.30;101703.00;;;;4992345;28;20570;-75
2024/03/20 05:42:01;;;;;;;11.05;8.10;;;12.50;62.10;14.30;101706.00;;;;4992388;28;20198;-76
2024/03/20 05:44:27;;;;;;;15.88;9.35;;;12.50;62.20;14.30;101706.00;;;;4992706;28;20201;-76
2024/03/20 05:46:54;;;;;;;13.27;9.18;;;12.50;62.20;14.30;101700.00;;;;4991813;28;20225;-75
2024/03/20 05:49:22;;;;;;;14.75;9.00;;;12.50;62.30;14.30;101696.00;;;;4990977;28;20194;-75
2024/03/20 05:51:50;;;;;;;15.48;9.65;;;12.50;62.30;14.30;101710.00;;;;4990422;28;20288;-76
2024/03/20 05:54:17;;;;;;;12.63;9.43;;;12.50;62.30;14.30;101704.00;;;;4990863;28;20256;-76
2024/03/20 05:56:44;;;;;;;14.27;9.60;;;12.50;62.30;14.30;101705.00;;;;4990112;28;20202;-75
2024/03/20 05:59:11;;;;;;;12.00;9.30;;;12.50;62.30;14.30;101708.00;;;;4992835;28;20194;-75
2024/03/20 06:01:39;;;;;;;21.80;10.98;;;12.50;62.30;14.30;101707.00;;;;4988405;28;20204;-76
2024/03/20 06:04:05;;;;;;;15.35;10.10;;;12.50;62.40;14.30;101705.00;;;;4990503;28;20206;-76
2024/03/20 06:06:34;;;;;;;15.48;10.18;;;12.50;62.40;14.30;101712.00;;;;4983668;28;20229;-76
2024/03/20 06:09:00;;;;;;;16.77;10.68;;;12.50;62.40;14.30;101705.00;;;;4989896;28;20204;-76
2024/03/20 06:11:27;;;;;;;17.67;11.48;;;12.50;62.50;14.30;101703.00;;;;4989983;28;20659;-76
2024/03/20 06:13:56;;;;;;;12.63;10.30;;;12.50;62.50;14.30;101700.00;;;;4983225;28;20194;-75
2024/03/20 06:16:23;;;;;;;16.88;10.82;;;12.50;62.60;14.30;101712.00;;;;4989789;28;20201;-76
2024/03/20 06:18:50;;;;;;;15.55;11.10;;;12.50;62.60;14.30;101707.00;;;;4991907;28;20307;-76
2024/03/20 06:21:16;;;;;;;18.17;11.57;;;12.50;62.70;14.30;101710.00;;;;4988683;28;20284;-76
2024/03/20 06:23:44;;;;;;;15.10;10.95;;;12.50;62.80;14.30;101708.00;;;;4990885;28;20221;-76
2024/03/20 06:26:10;;;;;;;15.25;10.65;;;12.50;62.80;14.30;101713.00;;;;4990933;28;20216;-76
2024/03/20 06:28:37;;;;;;;15.45;11.18;;;12.50;62.80;14.40;101708.00;;;;4990123;28;20213;-76
2024/03/20 06:31:05;;;;;;;16.77;11.48;;;12.50;62.80;14.40;101712.00;;;;4991309;28;20551;-76
2024/03/20 06:33:34;;;;;;;16.30;12.65;;;12.60;62.90;14.40;101715.00;;;;4987619;28;20285;-76
2024/03/20 06:36:00;;;;;;;20.48;12.82;;;12.60;62.90;14.40;101708.00;;;;4996113;28;20211;-76
2024/03/20 06:38:27;;;;;;;19.33;11.80;;;12.60;62.90;14.40;101710.00;;;;4992938;28;20193;-76
2024/03/20 06:40:54;;;;;;;15.80;11.55;;;12.60;62.90;14.40;101710.00;;;;4983462;28;20579;-76
2024/03/20 06:43:22;;;;;;;17.17;11.70;;;12.60;62.90;14.50;101720.00;;;;4991692;28;20217;-76
2024/03/20 06:45:49;;;;;;;18.45;12.73;;;12.60;62.90;14.50;101721.00;;;;4991402;28;20567;-76
2024/03/20 06:48:17;;;;;;;18.17;12.07;;;12.70;63.00;14.50;101727.00;;;;4991607;28;20201;-76
2024/03/20 06:50:46;;;;;;;20.02;11.35;;;12.70;63.00;14.50;101724.00;;;;4992394;28;20223;-76
2024/03/20 06:53:14;;;;;;;17.83;11.43;;;12.70;63.10;14.60;101727.00;;;;4990449;28;20202;-77
2024/03/20 06:55:40;;;;;;;17.67;12.35;;;12.70;63.10;14.60;101730.00;;;;4990729;28;20193;-76
2024/03/20 06:58:08;;;;;;;18.23;11.80;;;12.70;63.10;14.70;101729.00;;;;4993986;28;20573;-75
2024/03/20 07:00:35;;;;;;;15.25;10.98;;;12.80;63.20;14.70;101732.00;;;;4996088;28;20579;-76
2024/03/20 07:03:02;;;;;;;16.73;11.70;;;12.80;63.20;14.80;101730.00;;;;4994982;28;20204;-78
2024/03/20 07:05:28;;;;;;;18.42;12.57;;;12.90;63.40;14.80;101732.00;;;;4993426;28;20198;-78
2024/03/20 07:07:55;;;;;;;15.75;11.40;;;12.90;63.50;14.80;101743.00;;;;4995101;28;20212;-77
2024/03/20 07:10:21;;;;;;;16.05;11.35;;;12.90;63.50;14.90;101736.00;;;;4995265;28;20194;-78
2024/03/20 07:12:49;;;;;;;23.80;12.20;;;13.00;63.60;15.00;101734.00;;;;4995879;28;20209;-77
2024/03/20 07:15:17;;;;;;;18.33;11.95;;;13.00;63.70;15.00;101732.00;;;;4994607;28;20190;-78
2024/03/20 07:17:47;;;;;;;16.35;12.13;;;13.10;63.70;15.10;101730.00;;;;4991462;28;20304;-77
2024/03/20 07:20:13;;;;;;;17.20;12.25;;;13.20;63.90;15.20;101744.00;;;;4995472;28;20208;-77
2024/03/20 07:22:41;;;;;;;21.63;12.32;;;13.30;63.90;15.30;101746.00;;;;4995837;28;20210;-78
2024/03/20 07:25:07;;;;;;;16.17;12.73;;;13.40;64.00;15.40;101741.00;;;;4994366;28;20243;-75
2024/03/20 07:27:35;;;;;;;23.88;14.25;;;13.50;64.10;15.50;101739.00;;;;4994260;28;20233;-75
2024/03/20 07:30:03;;;;;;;18.00;12.07;;;13.50;64.10;15.60;101738.00;;;;4993614;28;20205;-76
2024/03/20 07:32:32;;;;;;;20.65;12.93;;;13.70;64.30;15.70;101740.00;;;;4994570;28;20198;-76
2024/03/20 07:34:58;;;;;;;16.48;11.70;;;13.70;64.30;15.80;101742.00;;;;4980597;28;20210;-76
2024/03/20 07:37:26;;;;;;;16.23;11.40;;;13.80;64.40;15.90;101749.00;;;;4995303;28;20198;-76
2024/03/20 07:39:52;;;;;;;16.08;11.05;;;13.90;65.10;16.00;101744.00;;;;4995277;28;20209;-76
2024/03/20 07:42:19;;;;;;;16.50;10.85;;;14.00;64.30;16.10;101753.00;;;;4995512;28;20229;-77
2024/03/20 07:44:47;;;;;;;15.10;10.55;;;14.10;64.20;16.20;101754.00;;;;5006375;28;20845;-77
2024/03/20 07:47:14;;;;;;;14.95;9.95;;;14.20;64.10;16.30;101752.00;;;;4995388;28;20336;-76
2024/03/20 07:49:45;;;;;;;20.65;10.65;;;14.40;64.20;16.40;101758.00;;;;4995494;28;20201;-76
2024/03/20 07:52:13;;;;;;;19.08;10.25;;;14.50;64.10;16.50;101758.00;;;;4994963;28;20202;-76
2024/03/20 07:54:39;;;;;;;14.75;9.65;;;14.60;64.10;16.60;101763.00;;;;4993531;28;20218;-77
2024/03/20 07:57:06;;;;;;;15.45;10.27;;;14.70;64.00;16.70;101759.00;;;;4994567;28;20231;-77
2024/03/20 07:59:32;;;;;;;18.08;10.32;;;14.80;64.00;16.80;101764.00;;;;4985157;28;20194;-77
2024/03/20 08:01:59;;;;;;;15.35;9.60;;;14.90;63.90;16.90;101764.00;;;;4979989;28;20237;-77
2024/03/20 08:04:26;;;;;;;17.35;10.45;;;15.00;63.70;17.00;101770.00;;;;4975717;28;20281;-77
2024/03/20 08:06:54;;;;;;;13.90;9.63;;;15.10;63.70;17.10;101765.00;;;;4990758;28;20233;-77
2024/03/20 08:09:20;;;;;;;15.60;9.73;;;15.20;63.60;17.20;101768.00;;;;4994188;28;20205;-79
2024/03/20 08:11:47;;;;;;;15.38;9.65;;;15.30;63.50;17.30;101772.00;;;;4994688;28;20289;-78
2024/03/20 08:14:13;;;;;;;13.02;8.48;;;15.40;63.40;17.50;101770.00;;;;4994810;28;20579;-75
2024/03/20 08:16:41;;;;;;;13.70;8.80;;;15.50;63.40;17.60;101768.00;;;;4994334;28;20201;-77
2024/03/20 08:19:08;;;;;;;13.77;7.97;;;15.60;63.30;17.70;101776.00;;;;4994292;28;20213;-77
2024/03/20 08:21:37;;;;;;;10.07;7.45;;;15.70;63.20;17.80;101780.00;;;;4994910;28;20213;-77
2024/03/20 08:24:05;;;;;;;14.55;7.53;;;15.90;63.10;17.90;101776.00;;;;4994480;28;20200;-77
2024/03/20 08:26:33;;;;;;;11.68;6.57;;;16.00;62.90;18.10;101779.00;;;;4994333;28;20312;-76
2024/03/20 08:28:59;;;;;;;9.48;5.72;;;16.10;62.80;18.20;101777.00;;;;4993378;28;20206;-77
2024/03/20 08:31:26;;;;;;;9.45;6.30;;;16.20;62.70;18.30;101767.00;;;;4993954;28;20198;-76
2024/03/20 08:33:52;;;;;;;14.00;6.32;;;16.30;62.40;18.40;101772.00;;;;4994187;28;20580;-77
2024/03/20 08:36:20;;;;;;;10.52;5.50;;;16.40;62.20;18.50;101771.00;;;;4994935;28;20205;-77
2024/03/20 08:38:46;;;;;;;10.65;5.63;;;16.60;62.20;18.60;101774.00;;;;4993855;28;20280;-76
2024/03/20 08:41:15;;;;;;;9.40;5.53;;;16.70;62.00;18.70;101779.00;;;;4994274;28;20201;-76
2024/03/20 08:43:41;;;;;;;10.18;6.30;;;16.80;61.80;18.80;101776.00;;;;4992236;28;20229;-77
2024/03/20 08:46:08;;;;;;;7.88;4.82;;;16.90;61.60;18.90;101787.00;;;;4991621;28;20332;-76
2024/03/20 08:48:34;;;;;;;8.80;5.15;;;17.00;61.50;19.00;101775.00;;;;4991268;28;20288;-76
2024/03/20 08:51:01;;;;;;;9.63;4.85;;;17.10;61.40;19.10;101782.00;;;;4993901;28;20198;-76
2024/03/20 08:53:30;;;;;;;8.48;4.40;;;17.20;61.20;19.20;101784.00;;;;4992579;28;20292;-76
2024/03/20 08:55:57;;;;;;;7.18;4.18;;;17.20;60.70;19.20;101793.00;;;;4992995;28;20337;-76
2024/03/20 08:58:25;;;;;;;10.20;3.88;;;17.30;60.50;19.30;101785.00;;;;4991203;28;20293;-76
2024/03/20 09:00:53;;;;;;;5.80;3.83;;;17.40;60.40;19.40;101789.00;;;;5000069;28;20205;-76
2024/03/20 09:03:19;;;;;;;5.95;3.97;;;17.50;60.30;19.50;101788.00;;;;4993517;28;20208;-76
2024/03/20 09:05:46;;;;;;;7.90;3.88;;;17.60;60.20;19.60;101779.00;;;;4991982;28;20655;-77
2024/03/20 09:08:12;;;;;;;8.23;4.55;;;17.70;60.10;19.60;101770.00;;;;4994005;28;20321;-77
2024/03/20 09:10:39;;;;;;;9.63;4.65;;;17.70;59.90;19.70;101771.00;;;;5003915;28;20197;-76
2024/03/20 09:13:06;;;;;;;13.85;5.13;;;17.80;59.80;19.80;101779.00;;;;4998239;28;20288;-74
2024/03/20 09:15:35;;;;;;;6.45;4.47;;;17.90;59.70;19.90;101774.00;;;;4993123;28;20667;-76
2024/03/20 09:18:01;;;;;;;9.35;5.03;;;18.00;59.70;20.00;101768.00;;;;4993206;28;20752;-76
2024/03/20 09:20:30;;;;;;;9.10;4.50;;;18.10;59.80;20.10;101767.00;;;;4992757;28;20202;-76
2024/03/20 09:22:57;;;;;;;20.67;5.80;;;18.10;59.70;20.20;101767.00;;;;5011077;28;20220;-76
2024/03/20 09:25:24;;;;;;;16.20;5.05;;;18.20;59.60;20.30;101773.00;;;;5003628;28;20212;-76
2024/03/20 09:27:51;;;;;;;9.63;4.60;;;18.30;59.50;20.40;101770.00;;;;4990921;28;20688;-78
2024/03/20 09:30:20;;;;;;;6.05;4.43;;;18.40;59.40;20.50;101778.00;;;;4988692;28;20202;-78
2024/03/20 09:32:47;;;;;;;9.07;5.05;;;18.50;59.40;20.60;101778.00;;;;4998286;28;20193;-77
2024/03/20 09:35:15;;;;;;;6.25;4.50;;;18.60;59.10;20.70;101781.00;;;;4998656;28;20198;-77
2024/03/20 09:37:42;;;;;;;8.05;4.78;;;18.70;59.10;20.80;101771.00;;;;4993549;28;20217;-77
2024/03/20 09:40:10;;;;;;;11.45;5.20;;;18.90;59.00;20.90;101776.00;;;;4998119;28;20194;-77
2024/03/20 09:42:38;;;;;;;5.68;4.50;;;19.00;59.00;21.00;101770.00;;;;4995643;28;20701;-77
2024/03/20 09:45:08;;;;;;;7.45;5.20;;;19.10;58.90;21.10;101773.00;;;;5000944;28;20201;-77
2024/03/20 09:47:35;;;;;;;6.32;4.55;;;19.20;58.90;21.20;101771.00;;;;4994881;28;20229;-77
2024/03/20 09:50:04;;;;;;;7.15;5.07;;;19.30;58.80;21.30;101768.00;;;;4992621;28;20694;-77
2024/03/20 09:52:30;;;;;;;7.93;4.93;;;19.40;58.60;21.40;101771.00;;;;4994451;28;20207;-77
2024/03/20 09:54:58;;;;;;;10.07;5.07;;;19.50;58.60;21.50;101770.00;;;;5005259;28;20197;-77
2024/03/20 09:57:24;;;;;;;7.32;4.68;;;19.60;58.50;21.50;101773.00;;;;5012046;28;20189;-77
2024/03/20 09:59:53;;;;;;;8.27;4.93;;;19.70;58.40;21.60;101776.00;;;;4990855;28;20206;-77
2024/03/20 10:02:21;;;;;;;7.53;5.40;;;19.80;58.30;21.70;101774.00;;;;5006810;28;20684;-78
2024/03/20 10:04:50;;;;;;;9.55;5.80;;;19.80;58.10;21.70;101769.00;;;;4991581;28;20204;-77
2024/03/20 10:07:18;;;;;;;11.65;5.38;;;19.90;58.00;21.80;101771.00;;;;4999756;28;20322;-77
2024/03/20 10:09:46;;;;;;;10.95;5.70;;;20.00;57.80;21.90;101765.00;;;;5004449;28;20224;-77
2024/03/20 10:12:13;;;;;;;10.20;4.97;;;20.10;57.80;22.00;101772.00;;;;4990760;28;20198;-77
2024/03/20 10:14:40;;;;;;;7.68;5.60;;;20.10;57.70;22.00;101766.00;;;;4993545;28;20225;-77
2024/03/20 10:17:11;;;;;;;10.43;5.57;;;20.20;57.70;22.10;101764.00;;;;4997780;28;20220;-76
2024/03/20 10:19:39;;;;;;;8.25;5.18;;;20.30;57.70;22.20;101762.00;;;;4994002;28;20193;-77
2024/03/20 10:22:06;;;;;;;7.47;5.70;;;20.40;57.60;22.30;101765.00;;;;4990755;28;20213;-77
2024/03/20 10:24:35;;;;;;;8.65;5.80;;;20.50;57.50;22.40;101767.00;;;;5000439;28;20197;-76
2024/03/20 10:27:03;;;;;;;8.70;5.40;;;20.60;57.50;22.50;101767.00;;;;5009307;28;20308;-76
2024/03/20 10:29:31;;;;;;;11.68;5.88;;;20.70;57.50;22.50;101767.00;;;;5005698;28;20226;-77
2024/03/20 10:31:58;;;;;;;7.95;6.13;;;20.70;57.20;22.60;101766.00;;;;4994248;28;20201;-76
2024/03/20 10:34:27;;;;;;;9.45;5.80;;;20.80;57.10;22.70;101763.00;;;;4997519;28;20726;-76
2024/03/20 10:36:54;;;;;;;8.13;6.05;;;20.90;57.00;22.80;101762.00;;;;4992152;28;20206;-77
2024/03/20 10:39:24;;;;;;;9.65;5.88;;;21.00;56.80;22.80;101766.00;;;;4991178;28;20198;-76
2024/03/20 10:41:53;;;;;;;8.93;6.22;;;21.10;56.70;22.90;101769.00;;;;4990409;28;20205;-77
2024/03/20 10:44:23;;;;;;;9.15;6.72;;;21.20;56.60;23.00;101769.00;;;;4991022;28;20294;-77